createdAt,value
2023-04-10T00:01:50.601Z,80.09
2023-04-10T00:04:18.080Z,80.59
2023-04-10T00:06:45.339Z,80.28
2023-04-10T00:09:15.491Z,80.49
2023-04-10T00:11:43.117Z,80.14
2023-04-10T00:14:10.281Z,81.26
2023-04-10T00:16:38.182Z,81.20
2023-04-10T00:19:05.458Z,80.70
2023-04-10T00:21:32.265Z,80.87
2023-04-10T00:24:08.685Z,80.17
2023-04-10T00:26:37.962Z,81.04
2023-04-10T00:29:05.389Z,82.07
2023-04-10T00:31:32.908Z,82.34
2023-04-10T00:34:00.252Z,82.94
2023-04-10T00:36:27.877Z,82.32
2023-04-10T00:38:55.284Z,83.13
2023-04-10T00:41:22.921Z,83.64
2023-04-10T00:43:56.084Z,83.26
2023-04-10T00:46:23.606Z,83.06
2023-04-10T00:48:51.349Z,82.39
2023-04-10T00:51:20.276Z,83.46
2023-04-10T00:53:48.422Z,85.31
2023-04-10T00:56:16.144Z,87.67
2023-04-10T00:58:43.668Z,87.23
2023-04-10T01:01:13.102Z,88.08
2023-04-10T01:03:42.936Z,86.44
2023-04-10T01:06:20.004Z,87.47
2023-04-10T01:08:57.694Z,87.56
2023-04-10T01:11:36.374Z,87.51
2023-04-10T01:14:12.842Z,86.87
2023-04-10T01:16:50.047Z,87.53
2023-04-10T01:19:26.549Z,86.79
2023-04-10T01:21:56.825Z,86.60
2023-04-10T01:24:37.937Z,87.54
2023-04-10T01:27:12.746Z,88.09
2023-04-10T01:29:47.026Z,88.71
2023-04-10T01:32:17.321Z,89.71
2023-04-10T01:34:47.458Z,90.67
2023-04-10T01:37:17.617Z,93.68
2023-04-10T01:39:50.518Z,94.63
2023-04-10T01:42:20.391Z,95.95
2023-04-10T01:44:52.789Z,96.65
2023-04-10T01:47:20.839Z,99.26
2023-04-10T01:49:49.412Z,100.00
2023-04-10T01:52:18.626Z,100.00
2023-04-10T01:54:47.430Z,100.00
2023-04-10T01:57:16.056Z,100.00
2023-04-10T01:59:43.913Z,100.00
2023-04-10T02:02:13.356Z,100.00
2023-04-10T02:04:41.452Z,100.00
2023-04-10T02:07:17.147Z,100.00
2023-04-10T02:09:52.029Z,100.00
2023-04-10T02:12:24.117Z,100.00
2023-04-10T02:14:56.721Z,100.00
2023-04-10T02:17:30.263Z,100.00
2023-04-10T02:19:59.595Z,100.00
2023-04-10T02:22:27.789Z,100.00
2023-04-10T02:24:55.701Z,100.00
2023-04-10T02:27:30.613Z,100.00
2023-04-10T02:29:59.158Z,100.00
2023-04-10T02:32:28.484Z,100.00
2023-04-10T02:34:56.105Z,100.00
2023-04-10T02:37:23.830Z,100.00
2023-04-10T02:39:50.888Z,100.00
2023-04-10T02:42:18.960Z,100.00
2023-04-10T02:44:47.540Z,100.00
2023-04-10T02:47:16.581Z,100.00
2023-04-10T02:49:46.005Z,100.00
2023-04-10T02:52:13.875Z,100.00
2023-04-10T02:54:41.504Z,100.00
2023-04-10T02:57:09.236Z,100.00
2023-04-10T02:59:37.100Z,100.00
2023-04-10T03:02:04.522Z,100.00
2023-04-10T03:04:34.539Z,100.00
2023-04-10T03:07:03.837Z,100.00
2023-04-10T03:09:31.469Z,100.00
2023-04-10T03:11:58.722Z,100.00
2023-04-10T03:14:26.580Z,100.00
2023-04-10T03:16:53.867Z,100.00
2023-04-10T03:19:21.179Z,100.00
2023-04-10T03:21:49.015Z,100.00
2023-04-10T03:24:17.998Z,100.00
2023-04-10T03:26:46.392Z,100.00
2023-04-10T03:29:13.730Z,100.00
2023-04-10T03:31:41.292Z,100.00
2023-04-10T03:34:08.642Z,100.00
2023-04-10T03:36:36.263Z,100.00
2023-04-10T03:39:03.617Z,100.00
2023-04-10T03:41:32.378Z,100.00
2023-04-10T03:44:01.191Z,100.00
2023-04-10T03:46:28.609Z,100.00
2023-04-10T03:48:55.916Z,100.00
2023-04-10T03:51:24.320Z,100.00
2023-04-10T03:53:51.847Z,100.00
2023-04-10T03:56:20.220Z,100.00
2023-04-10T03:58:49.595Z,100.00
2023-04-10T04:01:18.674Z,100.00
2023-04-10T04:03:46.239Z,100.00
2023-04-10T04:06:13.698Z,100.00
2023-04-10T04:08:41.303Z,100.00
2023-04-10T04:11:09.271Z,100.00
2023-04-10T04:13:37.208Z,100.00
2023-04-10T04:16:08.753Z,100.00
2023-04-10T04:18:36.207Z,100.00
2023-04-10T04:21:04.033Z,100.00
2023-04-10T04:23:31.466Z,100.00
2023-04-10T04:25:58.923Z,100.00
2023-04-10T04:28:27.061Z,100.00
2023-04-10T04:30:55.549Z,100.00
2023-04-10T04:33:24.662Z,100.00
2023-04-10T04:35:52.638Z,100.00
2023-04-10T04:38:20.509Z,100.00
2023-04-10T04:40:47.768Z,100.00
2023-04-10T04:43:15.384Z,100.00
2023-04-10T04:45:42.985Z,100.00
2023-04-10T04:48:10.683Z,100.00
2023-04-10T04:50:40.438Z,100.00
2023-04-10T04:53:08.365Z,100.00
2023-04-10T04:55:35.906Z,100.00
2023-04-10T04:58:05.134Z,100.00
2023-04-10T05:00:32.578Z,100.00
2023-04-10T05:03:00.350Z,100.00
2023-04-10T05:05:28.800Z,100.00
2023-04-10T05:07:58.130Z,100.00
2023-04-10T05:10:25.474Z,100.00
2023-04-10T05:12:53.014Z,100.00
2023-04-10T05:15:20.510Z,100.00
2023-04-10T05:17:48.071Z,100.00
2023-04-10T05:20:15.842Z,100.00
2023-04-10T05:22:43.457Z,100.00
2023-04-10T05:25:15.065Z,100.00
2023-04-10T05:27:42.483Z,100.00
2023-04-10T05:30:11.212Z,100.00
2023-04-10T05:32:40.839Z,100.00
2023-04-10T05:35:09.351Z,100.00
2023-04-10T05:37:36.978Z,100.00
2023-04-10T05:40:05.058Z,100.00
2023-04-10T05:42:34.552Z,100.00
2023-04-10T05:45:03.108Z,100.00
2023-04-10T05:47:31.179Z,100.00
2023-04-10T05:49:58.209Z,100.00
2023-04-10T05:52:26.369Z,100.00
2023-04-10T05:54:53.823Z,100.00
2023-04-10T05:57:21.193Z,100.00
2023-04-10T05:59:50.731Z,100.00
2023-04-10T06:02:18.611Z,100.00
2023-04-10T06:04:47.139Z,100.00
2023-04-10T06:07:15.941Z,100.00
2023-04-10T06:09:43.289Z,100.00
2023-04-10T06:12:11.252Z,100.00
2023-04-10T06:14:39.668Z,100.00
2023-04-10T06:17:08.377Z,100.00
2023-04-10T06:19:36.236Z,100.00
2023-04-10T06:22:04.029Z,100.00
2023-04-10T06:24:30.830Z,100.00
2023-04-10T06:26:59.429Z,100.00
2023-04-10T06:29:26.893Z,100.00
2023-04-10T06:32:00.405Z,100.00
2023-04-10T06:34:29.103Z,100.00
2023-04-10T06:36:56.519Z,100.00
2023-04-10T06:39:23.650Z,100.00
2023-04-10T06:41:52.748Z,100.00
2023-04-10T06:44:20.855Z,100.00
2023-04-10T06:46:48.665Z,100.00
2023-04-10T06:49:16.327Z,100.00
2023-04-10T06:51:45.631Z,100.00
2023-04-10T06:54:14.665Z,100.00
2023-04-10T06:56:42.281Z,100.00
2023-04-10T06:59:10.149Z,100.00
2023-04-10T07:01:38.232Z,100.00
2023-04-10T07:04:05.851Z,100.00
2023-04-10T07:06:33.200Z,100.00
2023-04-10T07:09:03.921Z,100.00
2023-04-10T07:11:31.820Z,100.00
2023-04-10T07:13:59.472Z,100.00
2023-04-10T07:16:27.522Z,100.00
2023-04-10T07:18:55.324Z,100.00
2023-04-10T07:21:23.205Z,100.00
2023-04-10T07:23:50.851Z,100.00
2023-04-10T07:26:20.058Z,100.00
2023-04-10T07:28:47.576Z,100.00
2023-04-10T07:31:15.215Z,100.00
2023-04-10T07:33:42.812Z,100.00
2023-04-10T07:36:11.900Z,100.00
2023-04-10T07:38:40.022Z,100.00
2023-04-10T07:41:07.637Z,100.00
2023-04-10T07:43:38.022Z,100.00
2023-04-10T07:46:06.180Z,100.00
2023-04-10T07:48:33.562Z,100.00
2023-04-10T07:51:00.965Z,100.00
2023-04-10T07:53:28.694Z,100.00
2023-04-10T07:55:56.244Z,100.00
2023-04-10T07:58:24.375Z,98.34
2023-04-10T08:00:54.180Z,94.50
2023-04-10T08:05:49.179Z,93.34
2023-04-10T08:08:16.546Z,93.38
2023-04-10T08:10:44.796Z,95.02
2023-04-10T08:13:12.820Z,96.19
2023-04-10T08:15:39.958Z,91.30
2023-04-10T08:18:12.154Z,88.52
2023-04-10T08:20:40.073Z,89.26
2023-04-10T08:23:19.920Z,90.59
2023-04-10T08:25:48.596Z,92.18
2023-04-10T08:28:16.201Z,92.03
2023-04-10T08:30:43.834Z,92.16
2023-04-10T08:33:14.672Z,93.35
2023-04-10T08:35:42.269Z,93.85
2023-04-10T08:38:14.213Z,94.21
2023-04-10T08:40:42.535Z,94.37
2023-04-10T08:43:11.982Z,93.85
2023-04-10T08:45:41.435Z,92.38
2023-04-10T08:48:11.157Z,91.70
2023-04-10T08:50:43.857Z,94.79
2023-04-10T08:53:13.697Z,94.52
2023-04-10T08:55:41.545Z,92.82
2023-04-10T08:58:11.562Z,92.88
2023-04-10T09:00:40.613Z,93.45
2023-04-10T09:03:11.147Z,92.01
2023-04-10T09:05:41.253Z,90.95
2023-04-10T09:08:09.823Z,90.97
2023-04-10T09:10:37.083Z,82.19
2023-04-10T09:13:04.973Z,77.54
2023-04-10T09:15:59.297Z,69.92
2023-04-10T09:18:41.779Z,65.29
2023-04-10T09:21:12.005Z,64.82
2023-04-10T09:23:39.293Z,62.64
2023-04-10T09:26:23.489Z,56.42
2023-04-10T09:28:57.331Z,58.23
2023-04-10T09:31:30.622Z,61.25
2023-04-10T09:34:12.573Z,62.72
2023-04-10T09:36:41.800Z,66.41
2023-04-10T09:39:09.738Z,70.86
2023-04-10T09:41:48.643Z,68.67
2023-04-10T09:44:18.557Z,70.56
2023-04-10T09:46:45.489Z,78.55
2023-04-10T09:49:12.389Z,82.59
2023-04-10T09:51:40.865Z,92.10
2023-04-10T09:54:08.012Z,100.00
2023-04-10T09:56:39.053Z,100.00
2023-04-10T09:59:07.477Z,100.00
2023-04-10T10:01:34.649Z,100.00
2023-04-10T10:04:03.421Z,100.00
2023-04-10T10:06:31.811Z,100.00
2023-04-10T10:09:04.555Z,100.00
2023-04-10T10:11:33.765Z,100.00
2023-04-10T10:14:03.988Z,100.00
2023-04-10T10:16:35.293Z,100.00
2023-04-10T10:19:09.176Z,100.00
2023-04-10T10:21:36.920Z,100.00
2023-04-10T10:24:08.665Z,100.00
2023-04-10T10:26:39.337Z,100.00
2023-04-10T10:29:08.249Z,100.00
2023-04-10T10:31:37.451Z,100.00
2023-04-10T10:34:05.713Z,100.00
2023-04-10T10:36:33.305Z,100.00
2023-04-10T10:39:21.796Z,100.00
2023-04-10T10:41:59.588Z,100.00
2023-04-10T10:44:34.517Z,100.00
2023-04-10T10:47:08.135Z,100.00
2023-04-10T10:50:02.908Z,99.17
2023-04-10T10:52:43.663Z,100.00
2023-04-10T10:55:32.943Z,97.44
2023-04-10T10:58:02.777Z,96.04
2023-04-10T11:01:07.811Z,94.94
2023-04-10T11:03:36.872Z,92.72
2023-04-10T11:06:06.443Z,94.39
2023-04-10T11:08:41.967Z,96.08
2023-04-10T11:11:09.884Z,96.00
2023-04-10T11:13:39.376Z,96.58
2023-04-10T11:16:08.256Z,95.61
2023-04-10T11:19:14.077Z,95.59
2023-04-10T11:22:09.358Z,95.52
2023-04-10T11:24:59.730Z,99.99
2023-04-10T11:27:46.859Z,100.00
2023-04-10T11:30:29.190Z,100.00
2023-04-10T11:32:56.813Z,100.00
2023-04-10T11:35:24.181Z,100.00
2023-04-10T11:37:51.310Z,100.00
2023-04-10T11:40:18.186Z,100.00
2023-04-10T11:42:44.966Z,99.29
2023-04-10T11:45:28.437Z,100.00
2023-04-10T11:47:55.540Z,100.00
2023-04-10T11:50:22.349Z,100.00
2023-04-10T11:52:50.913Z,98.71
2023-04-10T11:55:17.994Z,98.67
2023-04-10T11:57:46.351Z,98.05
2023-04-10T12:00:23.400Z,96.31
2023-04-10T12:02:53.023Z,94.80
2023-04-10T12:05:20.311Z,93.25
2023-04-10T12:07:49.613Z,88.20
2023-04-10T12:10:16.896Z,86.42
2023-04-10T12:12:46.525Z,85.72
2023-04-10T12:15:27.173Z,87.27
2023-04-10T12:17:56.598Z,86.63
2023-04-10T12:20:23.834Z,86.98
2023-04-10T12:22:51.103Z,85.48
2023-04-10T12:25:21.472Z,87.97
2023-04-10T12:27:50.165Z,85.43
2023-04-10T12:30:17.406Z,83.96
2023-04-10T12:32:52.196Z,82.19
2023-04-10T12:35:21.157Z,82.82
2023-04-10T12:37:49.722Z,78.78
2023-04-10T12:40:17.416Z,82.04
2023-04-10T12:42:46.034Z,79.83
2023-04-10T12:45:13.924Z,78.51
2023-04-10T12:47:46.510Z,79.34
2023-04-10T12:50:16.133Z,80.61
2023-04-10T12:52:47.182Z,83.72
2023-04-10T12:55:16.046Z,81.66
2023-04-10T12:57:45.360Z,78.98
2023-04-10T13:00:16.725Z,81.60
2023-04-10T13:02:44.618Z,82.99
2023-04-10T13:05:12.507Z,85.79
2023-04-10T13:07:41.283Z,87.96
2023-04-10T13:10:11.450Z,85.52
2023-04-10T13:12:39.346Z,82.48
2023-04-10T13:15:08.048Z,81.94
2023-04-10T13:17:36.001Z,84.15
2023-04-10T13:20:04.881Z,81.52
2023-04-10T13:22:32.734Z,83.31
2023-04-10T13:24:59.924Z,80.50
2023-04-10T13:27:28.591Z,81.33
2023-04-10T13:29:56.747Z,80.23
2023-04-10T13:32:24.351Z,76.29
2023-04-10T13:34:51.810Z,75.56
2023-04-10T13:37:19.217Z,79.98
2023-04-10T13:39:47.012Z,81.53
2023-04-10T13:42:15.319Z,81.87
2023-04-10T13:44:44.190Z,78.62
2023-04-10T13:47:11.629Z,78.78
2023-04-10T13:49:39.869Z,80.58
2023-04-10T13:52:06.990Z,78.42
2023-04-10T13:54:34.277Z,76.41
2023-04-10T13:57:02.049Z,74.90
2023-04-10T13:59:29.511Z,75.36
2023-04-10T14:01:58.137Z,77.77
2023-04-10T14:04:25.852Z,73.81
2023-04-10T14:06:53.786Z,73.43
2023-04-10T14:09:21.294Z,70.76
2023-04-10T14:11:49.253Z,69.43
2023-04-10T14:14:16.995Z,66.68
2023-04-10T14:16:44.221Z,66.77
2023-04-10T14:19:13.770Z,69.54
2023-04-10T14:21:41.203Z,74.70
2023-04-10T14:24:08.544Z,85.87
2023-04-10T14:26:36.226Z,93.59
2023-04-10T14:29:03.687Z,98.85
2023-04-10T14:31:30.936Z,98.77
2023-04-10T14:33:58.318Z,97.56
2023-04-10T14:36:28.468Z,96.02
2023-04-10T14:38:55.856Z,95.48
2023-04-10T14:41:23.104Z,92.18
2023-04-10T14:43:50.112Z,90.96
2023-04-10T14:46:18.032Z,90.96
2023-04-10T14:48:45.686Z,93.29
2023-04-10T14:51:13.076Z,95.39
2023-04-10T14:53:41.638Z,97.47
2023-04-10T14:56:13.219Z,100.00
2023-04-10T14:58:40.605Z,100.00
2023-04-10T15:01:09.850Z,100.00
2023-04-10T15:03:37.168Z,100.00
2023-04-10T15:06:07.684Z,100.00
2023-04-10T15:08:35.316Z,100.00
2023-04-10T15:11:05.176Z,100.00
2023-04-10T15:13:32.957Z,100.00
2023-04-10T15:16:00.652Z,100.00
2023-04-10T15:18:28.065Z,100.00
2023-04-10T15:20:55.517Z,100.00
2023-04-10T15:23:22.880Z,100.00
2023-04-10T15:25:51.510Z,100.00
2023-04-10T15:28:20.613Z,100.00
2023-04-10T15:30:48.334Z,100.00
2023-04-10T15:33:15.756Z,100.00
2023-04-10T15:35:48.191Z,100.00
2023-04-10T15:38:16.792Z,100.00
2023-04-10T15:40:44.457Z,100.00
2023-04-10T15:43:13.507Z,100.00
2023-04-10T15:45:42.810Z,100.00
2023-04-10T15:48:10.242Z,100.00
2023-04-10T15:50:37.761Z,100.00
2023-04-10T15:53:05.192Z,100.00
2023-04-10T15:55:32.921Z,100.00
2023-04-10T15:58:02.247Z,100.00
2023-04-10T16:00:29.442Z,100.00
2023-04-10T16:02:58.967Z,100.00
2023-04-10T16:05:27.505Z,100.00
2023-04-10T16:07:55.663Z,99.67
2023-04-10T16:10:23.534Z,100.00
2023-04-10T16:12:51.178Z,98.45
2023-04-10T16:15:19.405Z,97.12
2023-04-10T16:17:49.624Z,96.85
2023-04-10T16:20:20.141Z,96.94
2023-04-10T16:22:47.431Z,98.13
2023-04-10T16:25:14.935Z,98.14
2023-04-10T16:27:42.538Z,98.91
2023-04-10T16:30:11.624Z,97.41
2023-04-10T16:32:38.751Z,98.53
2023-04-10T16:35:07.665Z,97.33
2023-04-10T16:37:36.856Z,97.49
2023-04-10T16:40:06.287Z,97.02
2023-04-10T16:42:33.615Z,96.85
2023-04-10T16:45:01.067Z,95.59
2023-04-10T16:47:29.016Z,93.77
2023-04-10T16:49:56.429Z,93.58
2023-04-10T16:52:23.980Z,95.65
2023-04-10T16:54:53.102Z,96.08
2023-04-10T16:57:21.252Z,94.51
2023-04-10T16:59:57.250Z,90.95
2023-04-10T17:02:25.022Z,90.03
2023-04-10T17:04:54.937Z,90.04
2023-04-10T17:07:22.508Z,90.54
2023-04-10T17:09:49.921Z,91.01
2023-04-10T17:12:18.513Z,90.64
2023-04-10T17:14:46.319Z,89.56
2023-04-10T17:17:14.282Z,87.21
2023-04-10T17:19:41.101Z,89.73
2023-04-10T17:22:08.464Z,91.94
2023-04-10T17:24:35.838Z,93.00
2023-04-10T17:27:03.262Z,95.07
2023-04-10T17:29:36.216Z,95.83
2023-04-10T17:32:03.857Z,98.24
2023-04-10T17:34:31.184Z,100.00
2023-04-10T17:36:59.175Z,100.00
2023-04-10T17:39:27.052Z,100.00
2023-04-10T17:41:54.307Z,100.00
2023-04-10T17:44:21.934Z,100.00
2023-04-10T17:46:51.142Z,100.00
2023-04-10T17:49:18.547Z,100.00
2023-04-10T17:51:46.282Z,100.00
2023-04-10T17:54:15.104Z,100.00
2023-04-10T17:56:42.787Z,100.00
2023-04-10T17:59:10.964Z,100.00
2023-04-10T18:01:39.111Z,100.00
2023-04-10T18:04:07.823Z,97.82
2023-04-10T18:06:35.437Z,96.85
2023-04-10T18:09:02.616Z,95.43
2023-04-10T18:11:30.309Z,93.82
2023-04-10T18:13:57.796Z,93.70
2023-04-10T18:16:25.334Z,92.51
2023-04-10T18:18:52.901Z,92.34
2023-04-10T18:21:21.602Z,91.94
2023-04-10T18:23:49.398Z,91.24
2023-04-10T18:26:16.552Z,91.15
2023-04-10T18:28:44.147Z,90.04
2023-04-10T18:31:11.546Z,90.17
2023-04-10T18:33:40.352Z,88.98
2023-04-10T18:36:08.685Z,88.59
2023-04-10T18:38:37.656Z,89.76
2023-04-10T18:41:06.559Z,89.73
2023-04-10T18:43:34.894Z,88.83
2023-04-10T18:46:02.187Z,89.85
2023-04-10T18:48:29.014Z,86.51
2023-04-10T18:50:56.143Z,85.36
2023-04-10T18:53:23.851Z,84.70
2023-04-10T18:55:53.637Z,86.50
2023-04-10T18:58:21.722Z,87.24
2023-04-10T19:00:48.685Z,85.40
2023-04-10T19:03:16.441Z,85.84
2023-04-10T19:05:43.812Z,85.73
2023-04-10T19:08:11.765Z,85.16
2023-04-10T19:10:39.191Z,83.89
2023-04-10T19:13:09.639Z,84.63
2023-04-10T19:15:39.420Z,85.81
2023-04-10T19:18:07.011Z,84.83
2023-04-10T19:20:49.878Z,84.44
2023-04-10T19:23:18.952Z,85.81
2023-04-10T19:25:46.253Z,87.04
2023-04-10T19:28:15.894Z,86.73
2023-04-10T19:30:43.444Z,86.13
2023-04-10T19:33:13.796Z,85.62
2023-04-10T19:35:41.075Z,86.71
2023-04-10T19:38:08.604Z,87.25
2023-04-10T19:40:36.068Z,86.15
2023-04-10T19:43:03.308Z,87.19
2023-04-10T19:45:32.598Z,87.87
2023-04-10T19:48:00.138Z,88.01
2023-04-10T19:50:29.053Z,90.28
2023-04-10T19:52:55.818Z,93.74
2023-04-10T19:55:23.188Z,98.92
2023-04-10T19:57:51.033Z,100.00
2023-04-10T20:00:19.448Z,100.00
2023-04-10T20:02:48.856Z,100.00
2023-04-10T20:05:16.478Z,100.00
2023-04-10T20:07:44.186Z,100.00
2023-04-10T20:10:11.520Z,100.00
2023-04-10T20:12:38.936Z,99.82
2023-04-10T20:15:07.585Z,100.00
2023-04-10T20:17:35.056Z,99.22
2023-04-10T20:20:03.432Z,99.51
2023-04-10T20:22:30.993Z,98.08
2023-04-10T20:24:57.907Z,97.55
2023-04-10T20:27:24.767Z,99.24
2023-04-10T20:29:52.129Z,100.00
2023-04-10T20:32:18.852Z,98.74
2023-04-10T20:34:46.474Z,96.99
2023-04-10T20:37:16.292Z,98.35
2023-04-10T20:39:44.291Z,96.28
2023-04-10T20:42:12.134Z,96.44
2023-04-10T20:44:39.669Z,95.13
2023-04-10T20:47:07.162Z,95.99
2023-04-10T20:49:34.484Z,95.56
2023-04-10T20:52:01.800Z,94.99
2023-04-10T20:54:30.600Z,93.05
2023-04-10T20:56:58.664Z,91.95
2023-04-10T20:59:25.699Z,91.74
2023-04-10T21:01:52.718Z,92.34
2023-04-10T21:04:20.923Z,94.47
2023-04-10T21:06:48.136Z,93.99
2023-04-10T21:09:15.503Z,94.15
2023-04-10T21:11:44.882Z,93.52
2023-04-10T21:14:13.484Z,93.94
2023-04-10T21:16:40.733Z,94.91
2023-04-10T21:19:08.576Z,95.17
2023-04-10T21:21:36.154Z,96.10
2023-04-10T21:24:03.651Z,96.01
2023-04-10T21:26:31.292Z,93.92
2023-04-10T21:29:00.756Z,93.42
2023-04-10T21:31:27.892Z,94.55
2023-04-10T21:33:54.955Z,94.60
2023-04-10T21:36:22.223Z,93.19
2023-04-10T21:38:49.475Z,91.57
2023-04-10T21:41:16.142Z,91.99
2023-04-10T21:43:45.441Z,91.90
2023-04-10T21:46:14.167Z,90.67
2023-04-10T21:48:41.936Z,90.96
2023-04-10T21:51:10.464Z,90.72
2023-04-10T21:53:37.880Z,90.57
2023-04-10T21:56:05.849Z,89.38
2023-04-10T21:58:33.127Z,91.25
2023-04-10T22:01:01.721Z,88.77
2023-04-10T22:03:31.345Z,89.03
2023-04-10T22:05:59.005Z,87.28
2023-04-10T22:08:26.296Z,87.44
2023-04-10T22:10:54.512Z,85.22
2023-04-10T22:13:30.272Z,84.85
2023-04-10T22:15:59.428Z,83.03
2023-04-10T22:18:27.218Z,81.22
2023-04-10T22:20:56.352Z,80.98
2023-04-10T22:23:25.468Z,81.63
2023-04-10T22:25:53.647Z,80.93
2023-04-10T22:28:20.427Z,80.50
2023-04-10T22:30:47.977Z,80.86
2023-04-10T22:33:14.757Z,81.30
2023-04-10T22:35:42.127Z,82.04
2023-04-10T22:38:11.141Z,83.02
2023-04-10T22:40:38.284Z,82.13
2023-04-10T22:43:05.520Z,82.10
2023-04-10T22:45:32.950Z,83.22
2023-04-10T22:48:00.441Z,84.15
2023-04-10T22:50:28.064Z,84.70
2023-04-10T22:52:54.948Z,84.37
2023-04-10T22:55:24.309Z,83.25
2023-04-10T22:57:51.445Z,83.16
2023-04-10T23:00:19.118Z,82.79
2023-04-10T23:02:46.556Z,82.41
2023-04-10T23:05:14.129Z,82.63
2023-04-10T23:07:41.827Z,82.66
2023-04-10T23:10:09.832Z,82.63
2023-04-10T23:12:38.870Z,82.35
2023-04-10T23:15:08.848Z,81.86
2023-04-10T23:17:36.566Z,82.15
2023-04-10T23:20:03.546Z,82.51
2023-04-10T23:22:30.958Z,82.18
2023-04-10T23:24:58.076Z,81.48
2023-04-10T23:27:25.529Z,81.49
2023-04-10T23:29:54.277Z,81.22
2023-04-10T23:32:22.662Z,80.83
2023-04-10T23:34:49.785Z,80.82
2023-04-10T23:37:18.729Z,81.22
2023-04-10T23:39:47.822Z,81.37
2023-04-10T23:42:15.841Z,81.36
2023-04-10T23:44:42.998Z,81.65
2023-04-10T23:47:11.652Z,82.29
2023-04-10T23:49:39.030Z,83.10
2023-04-10T23:52:06.183Z,84.22
2023-04-10T23:54:33.670Z,84.91
2023-04-10T23:57:00.933Z,85.10
2023-04-10T23:59:28.096Z,84.34
